Terminal Aerodrome Forecast
Issued by NWS

Home | Current Version | Previous Version | Text Only | Print | Product List | Glossary On
Versions: 1 2 3 4 5 6 7 8 9 10 11 12 13 14 15 16 17
000
FTUS41 KCAR 241800 AAA
TAFBHB
TAF AMD
KBHB 241838Z 2419/2518 34017G30KT 6SM -RA OVC020
     FM250000 35014G22KT P6SM OVC020
     FM250600 34011KT P6SM BKN015
     FM250800 34011KT P6SM SCT025
      AMD LTD TO CLD VIS AND WIND=

USA.gov is the U.S. government's official web portal to all federal, state and local government web resources and services.